sensor_id;sensor_type;location;lat;lon;timestamp;P1;durP1;ratioP1;P2;durP2;ratioP2
5795;SDS011;2924;51.458;7.046;2024-03-08T00:01:40;18.73;;;13.27;;
5795;SDS011;2924;51.458;7.046;2024-03-08T00:04:06;19.10;;;12.07;;
5795;SDS011;2924;51.458;7.046;2024-03-08T00:06:32;18.07;;;14.03;;
5795;SDS011;2924;51.458;7.046;2024-03-08T00:08:57;20.67;;;13.50;;
5795;SDS011;2924;51.458;7.046;2024-03-08T00:11:23;19.10;;;12.87;;
5795;SDS011;2924;51.458;7.046;2024-03-08T00:13:51;21.10;;;14.30;;
5795;SDS011;2924;51.458;7.046;2024-03-08T00:16:17;21.53;;;13.03;;
5795;SDS011;2924;51.458;7.046;2024-03-08T00:18:44;23.83;;;14.70;;
5795;SDS011;2924;51.458;7.046;2024-03-08T00:21:10;20.83;;;13.63;;
5795;SDS011;2924;51.458;7.046;2024-03-08T00:23:37;19.63;;;13.53;;
5795;SDS011;2924;51.458;7.046;2024-03-08T00:26:03;22.17;;;14.00;;
5795;SDS011;2924;51.458;7.046;2024-03-08T00:28:31;21.80;;;13.80;;
5795;SDS011;2924;51.458;7.046;2024-03-08T00:30:59;23.30;;;13.60;;
5795;SDS011;2924;51.458;7.046;2024-03-08T00:33:25;22.53;;;14.63;;
5795;SDS011;2924;51.458;7.046;2024-03-08T00:35:52;19.63;;;13.83;;
5795;SDS011;2924;51.458;7.046;2024-03-08T00:38:18;20.33;;;12.93;;
5795;SDS011;2924;51.458;7.046;2024-03-08T00:40:44;21.13;;;15.00;;
5795;SDS011;2924;51.458;7.046;2024-03-08T00:43:10;22.50;;;14.73;;
5795;SDS011;2924;51.458;7.046;2024-03-08T00:45:36;23.40;;;14.33;;
5795;SDS011;2924;51.458;7.046;2024-03-08T00:48:02;27.73;;;14.23;;
5795;SDS011;2924;51.458;7.046;2024-03-08T00:50:28;20.40;;;13.53;;
5795;SDS011;2924;51.458;7.046;2024-03-08T00:52:54;20.10;;;13.10;;
5795;SDS011;2924;51.458;7.046;2024-03-08T00:55:19;19.70;;;12.53;;
5795;SDS011;2924;51.458;7.046;2024-03-08T00:57:45;22.00;;;13.43;;
5795;SDS011;2924;51.458;7.046;2024-03-08T01:00:11;20.80;;;14.60;;
5795;SDS011;2924;51.458;7.046;2024-03-08T01:02:40;21.40;;;13.87;;
5795;SDS011;2924;51.458;7.046;2024-03-08T01:05:06;21.43;;;13.30;;
5795;SDS011;2924;51.458;7.046;2024-03-08T01:07:32;25.17;;;15.53;;
5795;SDS011;2924;51.458;7.046;2024-03-08T01:10:02;20.00;;;13.57;;
5795;SDS011;2924;51.458;7.046;2024-03-08T01:12:36;22.90;;;14.90;;
5795;SDS011;2924;51.458;7.046;2024-03-08T01:15:05;22.97;;;14.97;;
5795;SDS011;2924;51.458;7.046;2024-03-08T01:17:31;21.30;;;13.60;;
5795;SDS011;2924;51.458;7.046;2024-03-08T01:19:57;24.53;;;15.63;;
5795;SDS011;2924;51.458;7.046;2024-03-08T01:22:23;25.13;;;15.43;;
5795;SDS011;2924;51.458;7.046;2024-03-08T01:24:49;22.60;;;14.97;;
5795;SDS011;2924;51.458;7.046;2024-03-08T01:27:14;22.50;;;15.00;;
5795;SDS011;2924;51.458;7.046;2024-03-08T01:29:40;22.10;;;14.37;;
5795;SDS011;2924;51.458;7.046;2024-03-08T01:32:05;35.67;;;14.90;;
5795;SDS011;2924;51.458;7.046;2024-03-08T01:34:31;22.40;;;14.83;;
5795;SDS011;2924;51.458;7.046;2024-03-08T01:36:58;21.90;;;13.40;;
5795;SDS011;2924;51.458;7.046;2024-03-08T01:39:24;25.10;;;15.33;;
5795;SDS011;2924;51.458;7.046;2024-03-08T01:41:50;21.00;;;14.90;;
5795;SDS011;2924;51.458;7.046;2024-03-08T01:44:15;22.93;;;14.77;;
5795;SDS011;2924;51.458;7.046;2024-03-08T01:46:45;23.30;;;15.20;;
5795;SDS011;2924;51.458;7.046;2024-03-08T01:49:12;22.17;;;14.87;;
5795;SDS011;2924;51.458;7.046;2024-03-08T01:51:39;24.60;;;14.73;;
5795;SDS011;2924;51.458;7.046;2024-03-08T01:54:06;25.77;;;15.73;;
5795;SDS011;2924;51.458;7.046;2024-03-08T01:56:35;34.47;;;14.70;;
5795;SDS011;2924;51.458;7.046;2024-03-08T01:59:02;22.53;;;15.57;;
5795;SDS011;2924;51.458;7.046;2024-03-08T02:01:29;26.97;;;17.07;;
5795;SDS011;2924;51.458;7.046;2024-03-08T02:03:55;23.87;;;15.40;;
5795;SDS011;2924;51.458;7.046;2024-03-08T02:06:20;29.00;;;17.23;;
5795;SDS011;2924;51.458;7.046;2024-03-08T02:08:46;21.30;;;14.13;;
5795;SDS011;2924;51.458;7.046;2024-03-08T02:11:12;25.70;;;16.33;;
5795;SDS011;2924;51.458;7.046;2024-03-08T02:13:38;25.07;;;15.70;;
5795;SDS011;2924;51.458;7.046;2024-03-08T02:16:04;23.30;;;15.80;;
5795;SDS011;2924;51.458;7.046;2024-03-08T02:18:32;29.13;;;15.50;;
5795;SDS011;2924;51.458;7.046;2024-03-08T02:20:59;22.17;;;15.37;;
5795;SDS011;2924;51.458;7.046;2024-03-08T02:23:27;23.97;;;15.40;;
5795;SDS011;2924;51.458;7.046;2024-03-08T02:25:53;23.10;;;15.90;;
5795;SDS011;2924;51.458;7.046;2024-03-08T02:28:21;25.60;;;15.90;;
5795;SDS011;2924;51.458;7.046;2024-03-08T02:30:48;23.30;;;16.20;;
5795;SDS011;2924;51.458;7.046;2024-03-08T02:33:15;23.87;;;15.97;;
5795;SDS011;2924;51.458;7.046;2024-03-08T02:35:42;24.20;;;15.63;;
5795;SDS011;2924;51.458;7.046;2024-03-08T02:38:10;24.90;;;15.00;;
5795;SDS011;2924;51.458;7.046;2024-03-08T02:40:37;25.57;;;15.20;;
5795;SDS011;2924;51.458;7.046;2024-03-08T02:43:02;21.93;;;15.00;;
5795;SDS011;2924;51.458;7.046;2024-03-08T02:45:30;24.50;;;16.47;;
5795;SDS011;2924;51.458;7.046;2024-03-08T02:47:55;23.47;;;15.43;;
5795;SDS011;2924;51.458;7.046;2024-03-08T02:50:21;23.07;;;15.07;;
5795;SDS011;2924;51.458;7.046;2024-03-08T02:52:47;24.33;;;16.60;;
5795;SDS011;2924;51.458;7.046;2024-03-08T02:55:13;22.50;;;14.60;;
5795;SDS011;2924;51.458;7.046;2024-03-08T02:57:42;26.40;;;16.53;;
5795;SDS011;2924;51.458;7.046;2024-03-08T03:00:12;30.87;;;16.90;;
5795;SDS011;2924;51.458;7.046;2024-03-08T03:02:38;27.63;;;17.50;;
5795;SDS011;2924;51.458;7.046;2024-03-08T03:05:04;23.87;;;16.40;;
5795;SDS011;2924;51.458;7.046;2024-03-08T03:07:34;25.87;;;17.93;;
5795;SDS011;2924;51.458;7.046;2024-03-08T03:10:00;27.10;;;17.87;;
5795;SDS011;2924;51.458;7.046;2024-03-08T03:12:27;22.63;;;16.27;;
5795;SDS011;2924;51.458;7.046;2024-03-08T03:14:53;25.00;;;16.50;;
5795;SDS011;2924;51.458;7.046;2024-03-08T03:17:19;25.97;;;16.43;;
5795;SDS011;2924;51.458;7.046;2024-03-08T03:19:45;23.70;;;16.50;;
5795;SDS011;2924;51.458;7.046;2024-03-08T03:22:11;25.50;;;15.90;;
5795;SDS011;2924;51.458;7.046;2024-03-08T03:24:37;25.80;;;16.83;;
5795;SDS011;2924;51.458;7.046;2024-03-08T03:27:07;30.23;;;17.73;;
5795;SDS011;2924;51.458;7.046;2024-03-08T03:29:36;28.70;;;17.53;;
5795;SDS011;2924;51.458;7.046;2024-03-08T03:32:07;25.13;;;16.40;;
5795;SDS011;2924;51.458;7.046;2024-03-08T03:34:33;28.83;;;16.80;;
5795;SDS011;2924;51.458;7.046;2024-03-08T03:37:02;28.43;;;19.00;;
5795;SDS011;2924;51.458;7.046;2024-03-08T03:39:28;23.73;;;15.80;;
5795;SDS011;2924;51.458;7.046;2024-03-08T03:41:57;25.60;;;16.20;;
5795;SDS011;2924;51.458;7.046;2024-03-08T03:44:24;33.43;;;18.20;;
5795;SDS011;2924;51.458;7.046;2024-03-08T03:46:49;28.23;;;15.53;;
5795;SDS011;2924;51.458;7.046;2024-03-08T03:49:18;28.70;;;17.73;;
5795;SDS011;2924;51.458;7.046;2024-03-08T03:51:44;28.43;;;16.10;;
5795;SDS011;2924;51.458;7.046;2024-03-08T03:54:09;26.30;;;15.80;;
5795;SDS011;2924;51.458;7.046;2024-03-08T03:56:35;23.60;;;14.80;;
5795;SDS011;2924;51.458;7.046;2024-03-08T03:59:01;28.73;;;17.47;;
5795;SDS011;2924;51.458;7.046;2024-03-08T04:01:27;28.80;;;16.30;;
5795;SDS011;2924;51.458;7.046;2024-03-08T04:03:54;23.57;;;15.97;;
5795;SDS011;2924;51.458;7.046;2024-03-08T04:06:20;26.93;;;16.57;;
5795;SDS011;2924;51.458;7.046;2024-03-08T04:08:45;31.13;;;16.70;;
5795;SDS011;2924;51.458;7.046;2024-03-08T04:11:11;27.30;;;17.33;;
5795;SDS011;2924;51.458;7.046;2024-03-08T04:13:37;30.23;;;16.30;;
5795;SDS011;2924;51.458;7.046;2024-03-08T04:16:02;28.90;;;17.73;;
5795;SDS011;2924;51.458;7.046;2024-03-08T04:18:32;26.20;;;16.67;;
5795;SDS011;2924;51.458;7.046;2024-03-08T04:21:00;31.67;;;16.60;;
5795;SDS011;2924;51.458;7.046;2024-03-08T04:23:27;28.63;;;17.73;;
5795;SDS011;2924;51.458;7.046;2024-03-08T04:25:53;32.13;;;18.50;;
5795;SDS011;2924;51.458;7.046;2024-03-08T04:28:19;33.50;;;16.90;;
5795;SDS011;2924;51.458;7.046;2024-03-08T04:30:44;25.50;;;16.43;;
5795;SDS011;2924;51.458;7.046;2024-03-08T04:33:11;27.47;;;17.13;;
5795;SDS011;2924;51.458;7.046;2024-03-08T04:35:37;29.57;;;17.93;;
5795;SDS011;2924;51.458;7.046;2024-03-08T04:38:02;25.60;;;17.10;;
5795;SDS011;2924;51.458;7.046;2024-03-08T04:40:30;24.20;;;15.53;;
5795;SDS011;2924;51.458;7.046;2024-03-08T04:42:56;30.50;;;17.27;;
5795;SDS011;2924;51.458;7.046;2024-03-08T04:45:23;28.00;;;17.00;;
5795;SDS011;2924;51.458;7.046;2024-03-08T04:47:50;28.87;;;17.20;;
5795;SDS011;2924;51.458;7.046;2024-03-08T04:50:17;28.70;;;16.67;;
5795;SDS011;2924;51.458;7.046;2024-03-08T04:52:43;26.20;;;15.63;;
5795;SDS011;2924;51.458;7.046;2024-03-08T04:55:08;30.37;;;17.43;;
5795;SDS011;2924;51.458;7.046;2024-03-08T04:57:34;29.53;;;18.40;;
5795;SDS011;2924;51.458;7.046;2024-03-08T05:00:00;28.53;;;18.80;;
5795;SDS011;2924;51.458;7.046;2024-03-08T05:02:27;31.97;;;18.10;;
5795;SDS011;2924;51.458;7.046;2024-03-08T05:04:52;28.40;;;17.37;;
5795;SDS011;2924;51.458;7.046;2024-03-08T05:07:18;29.77;;;17.73;;
5795;SDS011;2924;51.458;7.046;2024-03-08T05:09:44;28.40;;;17.63;;
5795;SDS011;2924;51.458;7.046;2024-03-08T05:12:16;29.43;;;18.23;;
5795;SDS011;2924;51.458;7.046;2024-03-08T05:14:42;31.90;;;19.13;;
5795;SDS011;2924;51.458;7.046;2024-03-08T05:17:08;28.03;;;16.97;;
5795;SDS011;2924;51.458;7.046;2024-03-08T05:19:34;31.53;;;18.20;;
5795;SDS011;2924;51.458;7.046;2024-03-08T05:22:01;30.30;;;17.90;;
5795;SDS011;2924;51.458;7.046;2024-03-08T05:24:28;27.10;;;17.10;;
5795;SDS011;2924;51.458;7.046;2024-03-08T05:26:55;33.33;;;18.67;;
5795;SDS011;2924;51.458;7.046;2024-03-08T05:29:20;36.33;;;18.30;;
5795;SDS011;2924;51.458;7.046;2024-03-08T05:31:49;30.47;;;19.37;;
5795;SDS011;2924;51.458;7.046;2024-03-08T05:34:17;30.53;;;20.00;;
5795;SDS011;2924;51.458;7.046;2024-03-08T05:36:44;34.20;;;21.07;;
5795;SDS011;2924;51.458;7.046;2024-03-08T05:39:11;30.47;;;18.53;;
5795;SDS011;2924;51.458;7.046;2024-03-08T05:41:41;32.07;;;20.10;;
5795;SDS011;2924;51.458;7.046;2024-03-08T05:44:07;44.33;;;18.80;;
5795;SDS011;2924;51.458;7.046;2024-03-08T05:46:33;33.43;;;20.70;;
5795;SDS011;2924;51.458;7.046;2024-03-08T05:49:03;35.00;;;19.87;;
5795;SDS011;2924;51.458;7.046;2024-03-08T05:51:31;31.93;;;21.10;;
5795;SDS011;2924;51.458;7.046;2024-03-08T05:54:03;36.47;;;20.23;;
5795;SDS011;2924;51.458;7.046;2024-03-08T05:56:34;32.13;;;20.10;;
5795;SDS011;2924;51.458;7.046;2024-03-08T05:59:01;35.43;;;22.83;;
5795;SDS011;2924;51.458;7.046;2024-03-08T06:01:26;31.37;;;18.97;;
5795;SDS011;2924;51.458;7.046;2024-03-08T06:03:53;33.33;;;19.80;;
5795;SDS011;2924;51.458;7.046;2024-03-08T06:06:20;34.47;;;20.87;;
5795;SDS011;2924;51.458;7.046;2024-03-08T06:08:46;31.17;;;20.20;;
5795;SDS011;2924;51.458;7.046;2024-03-08T06:11:13;41.17;;;21.10;;
5795;SDS011;2924;51.458;7.046;2024-03-08T06:13:40;39.97;;;20.63;;
5795;SDS011;2924;51.458;7.046;2024-03-08T06:16:05;42.67;;;22.03;;
5795;SDS011;2924;51.458;7.046;2024-03-08T06:18:33;33.20;;;19.03;;
5795;SDS011;2924;51.458;7.046;2024-03-08T06:21:02;35.40;;;20.53;;
5795;SDS011;2924;51.458;7.046;2024-03-08T06:23:30;30.67;;;19.50;;
5795;SDS011;2924;51.458;7.046;2024-03-08T06:25:58;32.53;;;18.43;;
5795;SDS011;2924;51.458;7.046;2024-03-08T06:28:24;29.97;;;19.93;;
5795;SDS011;2924;51.458;7.046;2024-03-08T06:30:50;38.03;;;20.20;;
5795;SDS011;2924;51.458;7.046;2024-03-08T06:33:16;35.10;;;20.00;;
5795;SDS011;2924;51.458;7.046;2024-03-08T06:35:42;27.53;;;18.23;;
5795;SDS011;2924;51.458;7.046;2024-03-08T06:38:08;33.33;;;18.63;;
5795;SDS011;2924;51.458;7.046;2024-03-08T06:40:34;37.83;;;21.47;;
5795;SDS011;2924;51.458;7.046;2024-03-08T06:42:59;39.67;;;21.53;;
5795;SDS011;2924;51.458;7.046;2024-03-08T06:45:25;28.33;;;18.87;;
5795;SDS011;2924;51.458;7.046;2024-03-08T06:47:51;35.90;;;19.30;;
5795;SDS011;2924;51.458;7.046;2024-03-08T06:50:17;33.10;;;18.27;;
5795;SDS011;2924;51.458;7.046;2024-03-08T06:52:42;31.17;;;18.97;;
5795;SDS011;2924;51.458;7.046;2024-03-08T06:55:09;29.17;;;18.17;;
5795;SDS011;2924;51.458;7.046;2024-03-08T06:57:39;33.57;;;20.00;;
5795;SDS011;2924;51.458;7.046;2024-03-08T07:00:06;25.97;;;18.27;;
5795;SDS011;2924;51.458;7.046;2024-03-08T07:02:37;25.83;;;17.20;;
5795;SDS011;2924;51.458;7.046;2024-03-08T07:05:04;28.00;;;17.43;;
5795;SDS011;2924;51.458;7.046;2024-03-08T07:07:30;33.40;;;18.70;;
5795;SDS011;2924;51.458;7.046;2024-03-08T07:09:56;27.70;;;18.67;;
5795;SDS011;2924;51.458;7.046;2024-03-08T07:12:22;28.97;;;18.10;;
5795;SDS011;2924;51.458;7.046;2024-03-08T07:14:48;27.53;;;17.50;;
5795;SDS011;2924;51.458;7.046;2024-03-08T07:17:14;26.30;;;17.83;;
5795;SDS011;2924;51.458;7.046;2024-03-08T07:19:41;31.63;;;17.87;;
5795;SDS011;2924;51.458;7.046;2024-03-08T07:22:07;29.13;;;17.90;;
5795;SDS011;2924;51.458;7.046;2024-03-08T07:24:36;27.87;;;17.90;;
5795;SDS011;2924;51.458;7.046;2024-03-08T07:27:02;29.87;;;18.40;;
5795;SDS011;2924;51.458;7.046;2024-03-08T07:29:30;28.03;;;18.67;;
5795;SDS011;2924;51.458;7.046;2024-03-08T07:31:55;27.30;;;17.80;;
5795;SDS011;2924;51.458;7.046;2024-03-08T07:34:39;26.43;;;16.43;;
5795;SDS011;2924;51.458;7.046;2024-03-08T07:37:06;26.63;;;16.93;;
5795;SDS011;2924;51.458;7.046;2024-03-08T07:39:36;28.07;;;16.73;;
5795;SDS011;2924;51.458;7.046;2024-03-08T07:42:02;28.73;;;16.93;;
5795;SDS011;2924;51.458;7.046;2024-03-08T07:44:28;27.30;;;17.90;;
5795;SDS011;2924;51.458;7.046;2024-03-08T07:46:56;24.90;;;17.10;;
5795;SDS011;2924;51.458;7.046;2024-03-08T07:49:21;31.17;;;17.53;;
5795;SDS011;2924;51.458;7.046;2024-03-08T07:51:47;39.37;;;19.03;;
5795;SDS011;2924;51.458;7.046;2024-03-08T07:54:14;32.90;;;18.70;;
5795;SDS011;2924;51.458;7.046;2024-03-08T07:56:39;26.23;;;17.00;;
5795;SDS011;2924;51.458;7.046;2024-03-08T07:59:05;34.37;;;17.57;;
5795;SDS011;2924;51.458;7.046;2024-03-08T08:01:31;25.33;;;15.80;;
5795;SDS011;2924;51.458;7.046;2024-03-08T08:03:58;32.43;;;18.50;;
5795;SDS011;2924;51.458;7.046;2024-03-08T08:06:24;23.47;;;16.20;;
5795;SDS011;2924;51.458;7.046;2024-03-08T08:08:50;28.43;;;17.20;;
5795;SDS011;2924;51.458;7.046;2024-03-08T08:11:16;26.57;;;17.70;;
5795;SDS011;2924;51.458;7.046;2024-03-08T08:13:41;30.60;;;16.77;;
5795;SDS011;2924;51.458;7.046;2024-03-08T08:16:08;29.83;;;18.17;;
5795;SDS011;2924;51.458;7.046;2024-03-08T08:18:34;26.93;;;18.10;;
5795;SDS011;2924;51.458;7.046;2024-03-08T08:21:00;26.03;;;17.10;;
5795;SDS011;2924;51.458;7.046;2024-03-08T08:23:27;27.73;;;16.80;;
5795;SDS011;2924;51.458;7.046;2024-03-08T08:25:53;28.07;;;16.03;;
5795;SDS011;2924;51.458;7.046;2024-03-08T08:28:20;27.20;;;17.70;;
5795;SDS011;2924;51.458;7.046;2024-03-08T08:30:46;26.87;;;17.03;;
5795;SDS011;2924;51.458;7.046;2024-03-08T08:33:11;27.70;;;17.90;;
5795;SDS011;2924;51.458;7.046;2024-03-08T08:35:37;24.13;;;15.97;;
5795;SDS011;2924;51.458;7.046;2024-03-08T08:38:04;26.67;;;17.23;;
5795;SDS011;2924;51.458;7.046;2024-03-08T08:40:29;29.00;;;16.80;;
5795;SDS011;2924;51.458;7.046;2024-03-08T08:42:58;28.97;;;17.00;;
5795;SDS011;2924;51.458;7.046;2024-03-08T08:45:24;24.50;;;16.90;;
5795;SDS011;2924;51.458;7.046;2024-03-08T08:47:50;32.83;;;17.33;;
5795;SDS011;2924;51.458;7.046;2024-03-08T08:50:16;28.83;;;15.80;;
5795;SDS011;2924;51.458;7.046;2024-03-08T08:52:48;23.90;;;15.77;;
5795;SDS011;2924;51.458;7.046;2024-03-08T08:55:13;27.23;;;17.97;;
5795;SDS011;2924;51.458;7.046;2024-03-08T08:57:42;24.80;;;16.70;;
5795;SDS011;2924;51.458;7.046;2024-03-08T09:00:09;22.50;;;15.87;;
5795;SDS011;2924;51.458;7.046;2024-03-08T09:02:40;24.27;;;17.30;;
5795;SDS011;2924;51.458;7.046;2024-03-08T09:05:06;24.20;;;16.00;;
5795;SDS011;2924;51.458;7.046;2024-03-08T09:07:36;26.87;;;17.27;;
5795;SDS011;2924;51.458;7.046;2024-03-08T09:10:02;25.40;;;15.70;;
5795;SDS011;2924;51.458;7.046;2024-03-08T09:12:28;27.10;;;15.70;;
5795;SDS011;2924;51.458;7.046;2024-03-08T09:14:54;22.87;;;13.70;;
5795;SDS011;2924;51.458;7.046;2024-03-08T09:17:19;25.40;;;15.67;;
5795;SDS011;2924;51.458;7.046;2024-03-08T09:19:49;25.47;;;16.17;;
5795;SDS011;2924;51.458;7.046;2024-03-08T09:22:14;23.80;;;16.90;;
5795;SDS011;2924;51.458;7.046;2024-03-08T09:24:40;22.20;;;14.27;;
5795;SDS011;2924;51.458;7.046;2024-03-08T09:27:08;24.53;;;14.37;;
5795;SDS011;2924;51.458;7.046;2024-03-08T09:29:34;23.10;;;14.87;;
5795;SDS011;2924;51.458;7.046;2024-03-08T09:32:00;25.80;;;15.70;;
5795;SDS011;2924;51.458;7.046;2024-03-08T09:34:26;31.07;;;16.60;;
5795;SDS011;2924;51.458;7.046;2024-03-08T09:36:52;26.43;;;16.40;;
5795;SDS011;2924;51.458;7.046;2024-03-08T09:39:18;23.87;;;15.70;;
5795;SDS011;2924;51.458;7.046;2024-03-08T09:41:45;30.90;;;16.20;;
5795;SDS011;2924;51.458;7.046;2024-03-08T09:44:14;26.40;;;16.00;;
5795;SDS011;2924;51.458;7.046;2024-03-08T09:46:40;24.20;;;14.27;;
5795;SDS011;2924;51.458;7.046;2024-03-08T09:49:07;22.20;;;15.67;;
5795;SDS011;2924;51.458;7.046;2024-03-08T09:51:33;27.40;;;16.97;;
5795;SDS011;2924;51.458;7.046;2024-03-08T09:54:03;26.97;;;17.37;;
5795;SDS011;2924;51.458;7.046;2024-03-08T09:56:33;26.97;;;15.80;;
5795;SDS011;2924;51.458;7.046;2024-03-08T09:59:00;23.17;;;17.27;;
5795;SDS011;2924;51.458;7.046;2024-03-08T10:01:44;20.43;;;14.90;;
5795;SDS011;2924;51.458;7.046;2024-03-08T10:04:11;26.60;;;16.17;;
5795;SDS011;2924;51.458;7.046;2024-03-08T10:06:38;24.10;;;14.80;;
5795;SDS011;2924;51.458;7.046;2024-03-08T10:09:05;23.67;;;16.83;;
5795;SDS011;2924;51.458;7.046;2024-03-08T10:11:32;21.50;;;14.77;;
5795;SDS011;2924;51.458;7.046;2024-03-08T10:13:59;27.73;;;16.90;;
5795;SDS011;2924;51.458;7.046;2024-03-08T10:16:25;28.30;;;14.47;;
5795;SDS011;2924;51.458;7.046;2024-03-08T10:18:52;24.77;;;15.07;;
5795;SDS011;2924;51.458;7.046;2024-03-08T10:21:18;24.83;;;14.70;;
5795;SDS011;2924;51.458;7.046;2024-03-08T10:23:44;30.13;;;15.00;;
5795;SDS011;2924;51.458;7.046;2024-03-08T10:26:13;26.60;;;15.77;;
5795;SDS011;2924;51.458;7.046;2024-03-08T10:28:44;21.80;;;14.80;;
5795;SDS011;2924;51.458;7.046;2024-03-08T10:31:12;23.60;;;15.33;;
5795;SDS011;2924;51.458;7.046;2024-03-08T10:33:40;23.23;;;15.80;;
5795;SDS011;2924;51.458;7.046;2024-03-08T10:36:09;23.60;;;15.77;;
5795;SDS011;2924;51.458;7.046;2024-03-08T10:38:36;26.40;;;16.93;;
5795;SDS011;2924;51.458;7.046;2024-03-08T10:41:04;28.90;;;15.63;;
5795;SDS011;2924;51.458;7.046;2024-03-08T10:43:32;34.93;;;15.60;;
5795;SDS011;2924;51.458;7.046;2024-03-08T10:46:19;30.57;;;16.47;;
5795;SDS011;2924;51.458;7.046;2024-03-08T10:48:53;24.20;;;16.60;;
5795;SDS011;2924;51.458;7.046;2024-03-08T10:51:23;27.53;;;18.47;;
5795;SDS011;2924;51.458;7.046;2024-03-08T10:53:49;30.67;;;17.30;;
5795;SDS011;2924;51.458;7.046;2024-03-08T10:56:16;24.43;;;16.07;;
5795;SDS011;2924;51.458;7.046;2024-03-08T10:58:42;26.63;;;15.73;;
5795;SDS011;2924;51.458;7.046;2024-03-08T11:01:09;27.23;;;15.73;;
5795;SDS011;2924;51.458;7.046;2024-03-08T11:06:05;26.87;;;16.67;;
5795;SDS011;2924;51.458;7.046;2024-03-08T11:08:39;31.07;;;16.73;;
5795;SDS011;2924;51.458;7.046;2024-03-08T11:11:05;22.50;;;16.17;;
5795;SDS011;2924;51.458;7.046;2024-03-08T11:13:47;26.90;;;16.77;;
5795;SDS011;2924;51.458;7.046;2024-03-08T11:18:54;26.23;;;16.70;;
5795;SDS011;2924;51.458;7.046;2024-03-08T11:21:29;41.83;;;17.53;;
5795;SDS011;2924;51.458;7.046;2024-03-08T11:23:59;26.90;;;18.27;;
5795;SDS011;2924;51.458;7.046;2024-03-08T11:26:25;22.43;;;15.07;;
5795;SDS011;2924;51.458;7.046;2024-03-08T11:28:51;23.57;;;16.77;;
5795;SDS011;2924;51.458;7.046;2024-03-08T11:33:47;26.70;;;16.40;;
5795;SDS011;2924;51.458;7.046;2024-03-08T11:36:21;45.93;;;17.87;;
5795;SDS011;2924;51.458;7.046;2024-03-08T11:38:48;22.80;;;16.53;;
5795;SDS011;2924;51.458;7.046;2024-03-08T11:41:14;23.80;;;15.23;;
5795;SDS011;2924;51.458;7.046;2024-03-08T11:43:43;26.97;;;17.97;;
5795;SDS011;2924;51.458;7.046;2024-03-08T11:46:09;20.93;;;15.83;;
5795;SDS011;2924;51.458;7.046;2024-03-08T11:48:37;29.60;;;16.97;;
5795;SDS011;2924;51.458;7.046;2024-03-08T11:51:12;24.30;;;16.77;;
5795;SDS011;2924;51.458;7.046;2024-03-08T11:53:40;25.00;;;16.20;;
5795;SDS011;2924;51.458;7.046;2024-03-08T11:56:09;21.77;;;16.00;;
5795;SDS011;2924;51.458;7.046;2024-03-08T11:58:37;24.30;;;17.27;;
5795;SDS011;2924;51.458;7.046;2024-03-08T12:01:10;21.43;;;15.30;;
5795;SDS011;2924;51.458;7.046;2024-03-08T12:03:39;24.63;;;14.37;;
5795;SDS011;2924;51.458;7.046;2024-03-08T12:06:07;24.27;;;15.23;;
5795;SDS011;2924;51.458;7.046;2024-03-08T12:08:34;20.60;;;14.63;;
5795;SDS011;2924;51.458;7.046;2024-03-08T12:11:00;20.70;;;15.70;;
5795;SDS011;2924;51.458;7.046;2024-03-08T12:13:29;18.93;;;14.20;;
5795;SDS011;2924;51.458;7.046;2024-03-08T12:16:00;22.27;;;15.00;;
5795;SDS011;2924;51.458;7.046;2024-03-08T12:18:30;23.13;;;15.63;;
5795;SDS011;2924;51.458;7.046;2024-03-08T12:21:09;22.90;;;12.13;;
5795;SDS011;2924;51.458;7.046;2024-03-08T12:23:36;22.80;;;13.90;;
5795;SDS011;2924;51.458;7.046;2024-03-08T12:26:13;19.83;;;13.93;;
5795;SDS011;2924;51.458;7.046;2024-03-08T12:28:40;19.90;;;12.80;;
5795;SDS011;2924;51.458;7.046;2024-03-08T12:31:12;18.90;;;14.10;;
5795;SDS011;2924;51.458;7.046;2024-03-08T12:33:51;21.83;;;13.97;;
5795;SDS011;2924;51.458;7.046;2024-03-08T12:36:23;19.10;;;13.40;;
5795;SDS011;2924;51.458;7.046;2024-03-08T12:38:48;14.60;;;11.80;;
5795;SDS011;2924;51.458;7.046;2024-03-08T12:41:15;21.77;;;14.07;;
5795;SDS011;2924;51.458;7.046;2024-03-08T12:43:42;19.00;;;11.97;;
5795;SDS011;2924;51.458;7.046;2024-03-08T12:46:13;16.87;;;11.50;;
5795;SDS011;2924;51.458;7.046;2024-03-08T12:48:39;15.27;;;11.60;;
5795;SDS011;2924;51.458;7.046;2024-03-08T12:51:08;16.37;;;11.20;;
5795;SDS011;2924;51.458;7.046;2024-03-08T12:53:35;14.57;;;11.03;;
5795;SDS011;2924;51.458;7.046;2024-03-08T12:56:00;11.20;;;7.90;;
5795;SDS011;2924;51.458;7.046;2024-03-08T12:58:26;12.03;;;7.90;;
5795;SDS011;2924;51.458;7.046;2024-03-08T13:00:52;9.30;;;6.90;;
5795;SDS011;2924;51.458;7.046;2024-03-08T13:03:18;10.37;;;6.13;;
5795;SDS011;2924;51.458;7.046;2024-03-08T13:05:43;9.00;;;6.80;;
5795;SDS011;2924;51.458;7.046;2024-03-08T13:08:09;11.30;;;8.07;;
5795;SDS011;2924;51.458;7.046;2024-03-08T13:10:38;10.40;;;7.17;;
5795;SDS011;2924;51.458;7.046;2024-03-08T13:13:10;8.03;;;6.90;;
5795;SDS011;2924;51.458;7.046;2024-03-08T13:15:36;6.97;;;6.10;;
5795;SDS011;2924;51.458;7.046;2024-03-08T13:18:02;7.50;;;5.80;;
5795;SDS011;2924;51.458;7.046;2024-03-08T13:20:28;6.73;;;5.20;;
5795;SDS011;2924;51.458;7.046;2024-03-08T13:22:54;7.70;;;6.20;;
5795;SDS011;2924;51.458;7.046;2024-03-08T13:25:20;8.00;;;5.67;;
5795;SDS011;2924;51.458;7.046;2024-03-08T13:27:46;8.17;;;5.63;;
5795;SDS011;2924;51.458;7.046;2024-03-08T13:30:12;10.17;;;5.50;;
5795;SDS011;2924;51.458;7.046;2024-03-08T13:32:40;6.43;;;5.80;;
5795;SDS011;2924;51.458;7.046;2024-03-08T13:35:08;7.20;;;6.23;;
5795;SDS011;2924;51.458;7.046;2024-03-08T13:37:41;10.33;;;6.47;;
5795;SDS011;2924;51.458;7.046;2024-03-08T13:40:07;7.73;;;5.77;;
5795;SDS011;2924;51.458;7.046;2024-03-08T13:42:38;17.60;;;6.63;;
5795;SDS011;2924;51.458;7.046;2024-03-08T13:45:05;7.00;;;5.53;;
5795;SDS011;2924;51.458;7.046;2024-03-08T13:47:33;7.70;;;5.50;;
5795;SDS011;2924;51.458;7.046;2024-03-08T13:49:59;7.07;;;5.70;;
5795;SDS011;2924;51.458;7.046;2024-03-08T13:52:25;7.00;;;5.50;;
5795;SDS011;2924;51.458;7.046;2024-03-08T13:54:54;7.87;;;5.73;;
5795;SDS011;2924;51.458;7.046;2024-03-08T13:57:20;7.37;;;5.90;;
5795;SDS011;2924;51.458;7.046;2024-03-08T13:59:47;9.13;;;6.90;;
5795;SDS011;2924;51.458;7.046;2024-03-08T14:02:14;6.73;;;5.47;;
5795;SDS011;2924;51.458;7.046;2024-03-08T14:04:39;7.40;;;5.73;;
5795;SDS011;2924;51.458;7.046;2024-03-08T14:07:06;8.40;;;6.30;;
5795;SDS011;2924;51.458;7.046;2024-03-08T14:09:33;7.90;;;5.70;;
5795;SDS011;2924;51.458;7.046;2024-03-08T14:12:02;7.57;;;6.30;;
5795;SDS011;2924;51.458;7.046;2024-03-08T14:14:32;6.90;;;6.20;;
5795;SDS011;2924;51.458;7.046;2024-03-08T14:17:00;6.33;;;5.60;;
5795;SDS011;2924;51.458;7.046;2024-03-08T14:19:27;6.50;;;5.70;;
5795;SDS011;2924;51.458;7.046;2024-03-08T14:22:01;10.50;;;5.73;;
5795;SDS011;2924;51.458;7.046;2024-03-08T14:24:29;6.77;;;5.40;;
5795;SDS011;2924;51.458;7.046;2024-03-08T14:26:55;6.93;;;5.70;;
5795;SDS011;2924;51.458;7.046;2024-03-08T14:29:23;7.37;;;6.20;;
5795;SDS011;2924;51.458;7.046;2024-03-08T14:31:58;7.53;;;5.17;;
5795;SDS011;2924;51.458;7.046;2024-03-08T14:34:27;8.17;;;6.07;;
5795;SDS011;2924;51.458;7.046;2024-03-08T14:36:54;9.20;;;6.13;;
5795;SDS011;2924;51.458;7.046;2024-03-08T14:39:21;8.30;;;6.30;;
5795;SDS011;2924;51.458;7.046;2024-03-08T14:41:50;9.63;;;7.13;;
5795;SDS011;2924;51.458;7.046;2024-03-08T14:44:18;13.40;;;8.10;;
5795;SDS011;2924;51.458;7.046;2024-03-08T14:46:44;8.83;;;6.03;;
5795;SDS011;2924;51.458;7.046;2024-03-08T14:49:11;7.87;;;6.50;;
5795;SDS011;2924;51.458;7.046;2024-03-08T14:51:36;7.13;;;6.40;;
5795;SDS011;2924;51.458;7.046;2024-03-08T14:54:02;11.97;;;7.30;;
5795;SDS011;2924;51.458;7.046;2024-03-08T14:56:31;8.57;;;6.93;;
5795;SDS011;2924;51.458;7.046;2024-03-08T14:59:00;11.40;;;6.97;;